Time;durP1;ratioP1;P1;durP2;ratioP2;P2;SDS_P1;SDS_P2;PMS_P1;PMS_P2;Temp;Humidity;BMP_temperature;BMP_pressure;BME280_temperature;BME280_humidity;BME280_pressure;Samples;Min_cycle;Max_cycle;Signal;HPM_P1;HPM_P2
2022/07/19 00:01:49;;;;;;;0.00;0.00;;;;;;;;;;5034724;28;20480;-84
2022/07/19 00:04:15;;;;;;;0.15;0.00;;;;;;;;;;5035210;28;20107;-84
2022/07/19 00:06:41;;;;;;;0.00;0.00;;;;;;;;;;5018586;28;20083;-85
2022/07/19 00:09:08;;;;;;;0.00;0.00;;;;;;;;;;5035500;28;20072;-85
2022/07/19 00:11:34;;;;;;;0.00;0.00;;;;;;;;;;5034634;28;20047;-85
2022/07/19 00:14:00;;;;;;;0.00;0.00;;;;;;;;;;5034849;28;20085;-85
2022/07/19 00:16:26;;;;;;;0.00;0.00;;;;;;;;;;5034377;28;20451;-85
2022/07/19 00:18:52;;;;;;;0.00;0.00;;;;;;;;;;5034911;28;20053;-85
2022/07/19 00:21:17;;;;;;;0.00;0.00;;;;;;;;;;5034515;28;20041;-85
2022/07/19 00:23:43;;;;;;;0.00;0.00;;;;;;;;;;5018627;28;20045;-85
2022/07/19 00:26:09;;;;;;;0.00;0.00;;;;;;;;;;5052655;28;20519;-85
2022/07/19 00:28:35;;;;;;;0.00;0.00;;;;;;;;;;5034660;28;20056;-85
2022/07/19 00:31:01;;;;;;;0.00;0.00;;;;;;;;;;5034660;28;20135;-85
2022/07/19 00:33:27;;;;;;;0.00;0.00;;;;;;;;;;5034740;28;20044;-85
2022/07/19 00:35:53;;;;;;;0.00;0.00;;;;;;;;;;5052245;28;20044;-85
2022/07/19 00:38:19;;;;;;;0.00;0.00;;;;;;;;;;5035721;28;20119;-85
2022/07/19 00:40:45;;;;;;;0.00;0.00;;;;;;;;;;5038392;28;20048;-85
2022/07/19 00:43:12;;;;;;;0.00;0.00;;;;;;;;;;5056388;28;20067;-85
2022/07/19 00:45:38;;;;;;;0.00;0.00;;;;;;;;;;5038504;28;20037;-85
2022/07/19 00:48:05;;;;;;;0.00;0.00;;;;;;;;;;5038459;28;20128;-85
2022/07/19 00:50:31;;;;;;;0.00;0.00;;;;;;;;;;5056485;28;20040;-85
2022/07/19 00:53:05;;;;;;;0.00;0.00;;;;;;;;;;5056253;28;20123;-85
2022/07/19 00:55:33;;;;;;;0.00;0.00;;;;;;;;;;5038642;28;20080;-85
2022/07/19 00:57:59;;;;;;;0.00;0.00;;;;;;;;;;5055859;28;20124;-85
2022/07/19 01:00:26;;;;;;;0.00;0.00;;;;;;;;;;5038206;28;20033;-85
2022/07/19 01:02:52;;;;;;;0.00;0.00;;;;;;;;;;5056104;28;20087;-85
2022/07/19 01:05:19;;;;;;;0.00;0.00;;;;;;;;;;5056235;28;20077;-85
2022/07/19 01:07:45;;;;;;;0.00;0.00;;;;;;;;;;5037923;28;20131;-85
2022/07/19 01:10:14;;;;;;;0.00;0.00;;;;;;;;;;5038262;28;20045;-85
2022/07/19 01:12:40;;;;;;;0.00;0.00;;;;;;;;;;5055826;28;20116;-85
2022/07/19 01:15:15;;;;;;;0.00;0.00;;;;;;;;;;5056103;28;20449;-85
2022/07/19 01:17:41;;;;;;;0.00;0.00;;;;;;;;;;5055339;28;20041;-85
2022/07/19 01:20:07;;;;;;;0.00;0.00;;;;;;;;;;5021626;28;20045;-86
2022/07/19 01:22:33;;;;;;;0.00;0.00;;;;;;;;;;5037785;28;20041;-85
2022/07/19 01:24:59;;;;;;;0.38;0.32;;;;;;;;;;5055902;28;20131;-85
2022/07/19 01:27:25;;;;;;;0.00;0.00;;;;;;;;;;5037813;28;20124;-85
2022/07/19 01:29:51;;;;;;;0.00;0.00;;;;;;;;;;5037665;28;20056;-85
2022/07/19 01:32:17;;;;;;;0.00;0.00;;;;;;;;;;5055478;28;20064;-84
2022/07/19 01:34:43;;;;;;;0.20;0.10;;;;;;;;;;5037734;28;20507;-85
2022/07/19 01:37:09;;;;;;;0.00;0.00;;;;;;;;;;5037488;28;20076;-85
2022/07/19 01:39:35;;;;;;;0.00;0.00;;;;;;;;;;5037611;28;20480;-85
2022/07/19 01:42:01;;;;;;;0.00;0.00;;;;;;;;;;5037342;28;20029;-85
2022/07/19 01:44:27;;;;;;;0.00;0.00;;;;;;;;;;5021113;28;20039;-85
2022/07/19 01:46:53;;;;;;;0.00;0.00;;;;;;;;;;5020883;28;20040;-85
2022/07/19 01:49:19;;;;;;;0.00;0.00;;;;;;;;;;5020758;28;20086;-84
2022/07/19 01:51:45;;;;;;;0.00;0.00;;;;;;;;;;5020657;28;20507;-84
2022/07/19 01:54:11;;;;;;;0.00;0.00;;;;;;;;;;5037555;28;20044;-84
2022/07/19 01:56:41;;;;;;;0.00;0.00;;;;;;;;;;5037008;28;20048;-85
2022/07/19 01:59:07;;;;;;;0.10;0.00;;;;;;;;;;5055372;28;20037;-85
2022/07/19 02:01:33;;;;;;;0.00;0.00;;;;;;;;;;5036936;28;20166;-85
2022/07/19 02:03:59;;;;;;;0.00;0.00;;;;;;;;;;5037156;28;20396;-85
2022/07/19 02:06:25;;;;;;;0.00;0.00;;;;;;;;;;5037006;28;20138;-84
2022/07/19 02:08:51;;;;;;;0.00;0.00;;;;;;;;;;5037408;28;20052;-84
2022/07/19 02:11:35;;;;;;;0.00;0.00;;;;;;;;;;5037039;28;20048;-84
2022/07/19 02:14:02;;;;;;;0.00;0.00;;;;;;;;;;5036897;28;20052;-84
2022/07/19 02:16:28;;;;;;;0.00;0.00;;;;;;;;;;5036808;28;20053;-84
2022/07/19 02:18:54;;;;;;;0.00;0.00;;;;;;;;;;5036954;28;20127;-85
2022/07/19 02:21:20;;;;;;;0.00;0.00;;;;;;;;;;5036962;28;20048;-84
2022/07/19 02:23:46;;;;;;;0.00;0.00;;;;;;;;;;5036889;28;20102;-85
2022/07/19 02:26:12;;;;;;;0.00;0.00;;;;;;;;;;5036745;28;20051;-84
2022/07/19 02:28:38;;;;;;;0.00;0.00;;;;;;;;;;5020414;28;20040;-84
2022/07/19 02:31:04;;;;;;;0.00;0.00;;;;;;;;;;5036635;28;20098;-85
2022/07/19 02:33:31;;;;;;;0.00;0.00;;;;;;;;;;5054205;28;20041;-85
2022/07/19 02:35:57;;;;;;;0.00;0.00;;;;;;;;;;5036715;28;20476;-85
2022/07/19 02:38:23;;;;;;;0.00;0.00;;;;;;;;;;5036145;28;20120;-84
2022/07/19 02:40:49;;;;;;;0.00;0.00;;;;;;;;;;5036443;28;20041;-84
2022/07/19 02:43:15;;;;;;;0.00;0.00;;;;;;;;;;5036277;28;20100;-84
2022/07/19 02:45:41;;;;;;;0.00;0.00;;;;;;;;;;5020059;28;20040;-85
2022/07/19 02:48:09;;;;;;;0.00;0.00;;;;;;;;;;5053927;28;20092;-84
2022/07/19 02:50:35;;;;;;;0.00;0.00;;;;;;;;;;5036130;28;20123;-84
2022/07/19 02:53:01;;;;;;;0.00;0.00;;;;;;;;;;5036046;28;20040;-85
2022/07/19 02:55:27;;;;;;;0.00;0.00;;;;;;;;;;5036195;28;20052;-85
2022/07/19 02:57:53;;;;;;;0.00;0.00;;;;;;;;;;5053803;28;20189;-85
2022/07/19 03:00:19;;;;;;;0.00;0.00;;;;;;;;;;5035560;28;20199;-85
2022/07/19 03:02:45;;;;;;;0.00;0.00;;;;;;;;;;5053131;28;20094;-85
2022/07/19 03:05:11;;;;;;;0.00;0.00;;;;;;;;;;5035879;28;20072;-85
2022/07/19 03:07:37;;;;;;;0.00;0.00;;;;;;;;;;5035635;28;20060;-85
2022/07/19 03:10:04;;;;;;;0.00;0.00;;;;;;;;;;5019334;28;20044;-85
2022/07/19 03:12:30;;;;;;;0.00;0.00;;;;;;;;;;5035647;28;20041;-85
2022/07/19 03:14:56;;;;;;;0.00;0.00;;;;;;;;;;5035738;28;20051;-85
2022/07/19 03:17:22;;;;;;;0.00;0.00;;;;;;;;;;5035265;28;20107;-85
2022/07/19 03:19:48;;;;;;;0.00;0.00;;;;;;;;;;5035755;28;20052;-85
2022/07/19 03:22:14;;;;;;;0.00;0.00;;;;;;;;;;5035372;28;20502;-85
2022/07/19 03:24:40;;;;;;;0.00;0.00;;;;;;;;;;5035747;28;20037;-85
2022/07/19 03:27:06;;;;;;;0.00;0.00;;;;;;;;;;5053274;28;20048;-85
2022/07/19 03:29:32;;;;;;;0.00;0.00;;;;;;;;;;5053082;28;20507;-85
2022/07/19 03:31:58;;;;;;;0.00;0.00;;;;;;;;;;5053222;28;20045;-85
2022/07/19 03:34:25;;;;;;;0.00;0.00;;;;;;;;;;5035158;28;20044;-85
2022/07/19 03:36:51;;;;;;;0.00;0.00;;;;;;;;;;5035388;28;20122;-85
2022/07/19 03:39:17;;;;;;;0.00;0.00;;;;;;;;;;5052966;28;20083;-85
2022/07/19 03:41:43;;;;;;;0.00;0.00;;;;;;;;;;5035261;28;20389;-85
2022/07/19 03:44:09;;;;;;;0.00;0.00;;;;;;;;;;5035007;28;20043;-85
2022/07/19 03:46:35;;;;;;;0.00;0.00;;;;;;;;;;5035231;28;20048;-85
2022/07/19 03:49:01;;;;;;;0.22;0.08;;;;;;;;;;5035245;28;20045;-85
2022/07/19 03:51:27;;;;;;;0.00;0.00;;;;;;;;;;5018576;28;20506;-85
2022/07/19 03:53:53;;;;;;;0.00;0.00;;;;;;;;;;5034890;28;20040;-85
2022/07/19 03:56:20;;;;;;;0.00;0.00;;;;;;;;;;5034982;28;20115;-85
2022/07/19 03:58:46;;;;;;;0.00;0.00;;;;;;;;;;5034833;28;20045;-85
2022/07/19 04:01:12;;;;;;;0.00;0.00;;;;;;;;;;5034798;28;20037;-85
2022/07/19 04:03:39;;;;;;;0.00;0.00;;;;;;;;;;5034631;28;20450;-85
2022/07/19 04:06:06;;;;;;;0.00;0.00;;;;;;;;;;5034938;28;20048;-85
2022/07/19 04:08:32;;;;;;;0.00;0.00;;;;;;;;;;5052781;28;20033;-85
2022/07/19 04:10:58;;;;;;;0.00;0.00;;;;;;;;;;5034732;28;20519;-85
2022/07/19 04:13:24;;;;;;;0.00;0.00;;;;;;;;;;5034820;28;20049;-85
2022/07/19 04:15:50;;;;;;;0.00;0.00;;;;;;;;;;5052296;28;20045;-84
2022/07/19 04:18:16;;;;;;;0.00;0.00;;;;;;;;;;5034509;28;20415;-85
2022/07/19 04:20:42;;;;;;;0.00;0.00;;;;;;;;;;5034875;28;20431;-86
2022/07/19 04:23:08;;;;;;;0.00;0.00;;;;;;;;;;5034466;28;20048;-86
2022/07/19 04:25:34;;;;;;;0.00;0.00;;;;;;;;;;5035127;28;20388;-82
2022/07/19 04:28:01;;;;;;;0.00;0.00;;;;;;;;;;5034493;28;20051;-88
2022/07/19 04:30:28;;;;;;;0.00;0.00;;;;;;;;;;5018097;28;20123;-89
2022/07/19 04:32:54;;;;;;;0.00;0.00;;;;;;;;;;5034787;28;20503;-89
2022/07/19 04:35:20;;;;;;;0.00;0.00;;;;;;;;;;5034476;28;20588;-87
2022/07/19 04:37:46;;;;;;;0.00;0.00;;;;;;;;;;5034547;28;20037;-89
2022/07/19 04:40:12;;;;;;;0.00;0.00;;;;;;;;;;5034532;28;20037;-89
2022/07/19 04:42:38;;;;;;;0.00;0.00;;;;;;;;;;5018019;28;20032;-89
2022/07/19 04:45:05;;;;;;;0.00;0.00;;;;;;;;;;5034203;28;20060;-90
2022/07/19 04:47:31;;;;;;;0.00;0.00;;;;;;;;;;5034506;28;20095;-88
2022/07/19 04:49:57;;;;;;;0.00;0.00;;;;;;;;;;5034188;28;20467;-89
2022/07/19 04:52:23;;;;;;;0.00;0.00;;;;;;;;;;5034380;28;20140;-89
2022/07/19 04:54:49;;;;;;;0.00;0.00;;;;;;;;;;5017752;28;20076;-90
2022/07/19 04:57:15;;;;;;;0.00;0.00;;;;;;;;;;5034360;28;20128;-90
2022/07/19 04:59:41;;;;;;;0.00;0.00;;;;;;;;;;5034057;28;20145;-89
2022/07/19 05:02:07;;;;;;;0.00;0.00;;;;;;;;;;5034299;28;20171;-88
2022/07/19 05:04:33;;;;;;;0.00;0.00;;;;;;;;;;5034323;28;20083;-89
2022/07/19 05:06:59;;;;;;;0.00;0.00;;;;;;;;;;5034568;28;20053;-89
2022/07/19 05:09:26;;;;;;;0.00;0.00;;;;;;;;;;5034397;28;20049;-88
2022/07/19 05:11:53;;;;;;;0.00;0.00;;;;;;;;;;5017728;28;20048;-86
2022/07/19 05:14:19;;;;;;;0.00;0.00;;;;;;;;;;5033939;28;20052;-90
2022/07/19 05:16:46;;;;;;;0.00;0.00;;;;;;;;;;5033936;28;20167;-87
2022/07/19 05:19:12;;;;;;;0.00;0.00;;;;;;;;;;5033898;28;20044;-87
2022/07/19 05:21:38;;;;;;;0.00;0.00;;;;;;;;;;5034121;28;20041;-87
2022/07/19 05:24:04;;;;;;;0.00;0.00;;;;;;;;;;5034918;28;20423;-88
2022/07/19 05:26:31;;;;;;;0.00;0.00;;;;;;;;;;5037699;28;20052;-92
2022/07/19 05:28:57;;;;;;;0.00;0.00;;;;;;;;;;5021299;28;20044;-88
2022/07/19 05:31:23;;;;;;;0.00;0.00;;;;;;;;;;5037662;28;20049;-89
2022/07/19 05:33:49;;;;;;;0.00;0.00;;;;;;;;;;5069305;28;20048;-86
2022/07/19 05:36:18;;;;;;;0.00;0.00;;;;;;;;;;5073686;28;20090;-86
2022/07/19 05:38:44;;;;;;;0.00;0.00;;;;;;;;;;5073442;28;20041;-86
2022/07/19 05:41:10;;;;;;;0.00;0.00;;;;;;;;;;5073391;28;20054;-85
2022/07/19 05:43:37;;;;;;;0.00;0.00;;;;;;;;;;5057141;28;20387;-85
2022/07/19 05:46:03;;;;;;;0.00;0.00;;;;;;;;;;5074801;28;20043;-85
2022/07/19 05:48:29;;;;;;;0.00;0.00;;;;;;;;;;5073761;28;20043;-85
2022/07/19 05:50:56;;;;;;;0.00;0.00;;;;;;;;;;5073387;28;20063;-86
2022/07/19 05:53:22;;;;;;;0.00;0.00;;;;;;;;;;5074804;28;20048;-86
2022/07/19 05:55:48;;;;;;;0.00;0.00;;;;;;;;;;5073286;28;20059;-86
2022/07/19 05:58:14;;;;;;;0.00;0.00;;;;;;;;;;5073405;28;20074;-85
2022/07/19 06:01:17;;;;;;;0.00;0.00;;;;;;;;;;5073342;28;20036;-85
2022/07/19 06:03:26;;;;;;;0.00;0.00;;;;;;;;;;5074260;28;20090;-85
2022/07/19 06:05:52;;;;;;;0.00;0.00;;;;;;;;;;5073348;28;20044;-86
2022/07/19 06:08:18;;;;;;;0.00;0.00;;;;;;;;;;5073116;28;20048;-85
2022/07/19 06:10:43;;;;;;;0.00;0.00;;;;;;;;;;5074262;28;20037;-86
2022/07/19 06:13:09;;;;;;;0.00;0.00;;;;;;;;;;5073607;28;20044;-86
2022/07/19 06:15:35;;;;;;;0.00;0.00;;;;;;;;;;5072838;28;20399;-86
2022/07/19 06:18:01;;;;;;;0.00;0.00;;;;;;;;;;5072798;28;20088;-86
2022/07/19 06:20:27;;;;;;;0.00;0.00;;;;;;;;;;5072799;28;20045;-85
2022/07/19 06:22:53;;;;;;;0.00;0.00;;;;;;;;;;5072819;28;20036;-86
2022/07/19 06:25:19;;;;;;;0.00;0.00;;;;;;;;;;5073046;28;20049;-85
2022/07/19 06:27:45;;;;;;;0.00;0.00;;;;;;;;;;5072786;28;20116;-86
2022/07/19 06:30:11;;;;;;;0.00;0.00;;;;;;;;;;5072869;28;20097;-86
2022/07/19 06:32:37;;;;;;;0.00;0.00;;;;;;;;;;5072573;28;20483;-85
2022/07/19 06:35:04;;;;;;;0.00;0.00;;;;;;;;;;5072489;28;20068;-86
2022/07/19 06:37:29;;;;;;;0.00;0.00;;;;;;;;;;5055771;28;20060;-86
2022/07/19 06:39:55;;;;;;;0.00;0.00;;;;;;;;;;5072310;28;20067;-86
2022/07/19 06:42:21;;;;;;;0.00;0.00;;;;;;;;;;5072719;28;20040;-86
2022/07/19 06:44:47;;;;;;;0.00;0.00;;;;;;;;;;5072104;28;20437;-86
2022/07/19 06:47:14;;;;;;;0.00;0.00;;;;;;;;;;5073577;28;20051;-85
2022/07/19 06:49:40;;;;;;;0.00;0.00;;;;;;;;;;5072129;28;20166;-83
2022/07/19 06:52:06;;;;;;;0.00;0.00;;;;;;;;;;5072838;28;20116;-85
2022/07/19 06:54:32;;;;;;;0.00;0.00;;;;;;;;;;5061545;28;20078;-89
2022/07/19 06:56:59;;;;;;;0.00;0.00;;;;;;;;;;5056326;28;20403;-87
2022/07/19 06:59:25;;;;;;;0.00;0.00;;;;;;;;;;5040334;28;20083;-88
2022/07/19 07:01:51;;;;;;;0.00;0.00;;;;;;;;;;5039318;28;20040;-89
2022/07/19 07:04:17;;;;;;;0.00;0.00;;;;;;;;;;5056111;28;20483;-88
2022/07/19 07:06:43;;;;;;;0.00;0.00;;;;;;;;;;5057015;28;20040;-88
2022/07/19 07:09:09;;;;;;;0.00;0.00;;;;;;;;;;5058498;28;20040;-89
2022/07/19 07:11:35;;;;;;;0.00;0.00;;;;;;;;;;5058100;28;20079;-90
2022/07/19 07:14:01;;;;;;;0.00;0.00;;;;;;;;;;5057809;28;20037;-89
2022/07/19 07:16:27;;;;;;;0.00;0.00;;;;;;;;;;5055300;28;20572;-89
2022/07/19 07:18:53;;;;;;;0.00;0.00;;;;;;;;;;5038980;28;20045;-88
2022/07/19 07:21:19;;;;;;;0.00;0.00;;;;;;;;;;5038560;28;20075;-88
2022/07/19 07:23:45;;;;;;;0.00;0.00;;;;;;;;;;5055449;28;20047;-88
2022/07/19 07:26:11;;;;;;;0.00;0.00;;;;;;;;;;5055400;28;20036;-89
2022/07/19 07:28:37;;;;;;;0.00;0.00;;;;;;;;;;5055415;28;20380;-88
2022/07/19 07:31:03;;;;;;;0.00;0.00;;;;;;;;;;5055150;28;20040;-89
2022/07/19 07:33:29;;;;;;;0.00;0.00;;;;;;;;;;5055344;28;20410;-88
2022/07/19 07:35:55;;;;;;;0.00;0.00;;;;;;;;;;5038417;28;20048;-89
2022/07/19 07:38:21;;;;;;;0.00;0.00;;;;;;;;;;5038599;28;20372;-87
2022/07/19 07:40:47;;;;;;;0.00;0.00;;;;;;;;;;5055021;28;20090;-88
2022/07/19 07:43:14;;;;;;;0.00;0.00;;;;;;;;;;5038925;28;20036;-87
2022/07/19 07:45:40;;;;;;;0.00;0.00;;;;;;;;;;5038255;28;20123;-89
2022/07/19 07:48:06;;;;;;;0.00;0.00;;;;;;;;;;5055083;28;20124;-86
2022/07/19 07:50:32;;;;;;;0.00;0.00;;;;;;;;;;5055326;28;20079;-89
2022/07/19 07:52:58;;;;;;;0.00;0.00;;;;;;;;;;5038503;28;20049;-88
2022/07/19 07:55:24;;;;;;;0.00;0.00;;;;;;;;;;5038484;28;20105;-89
2022/07/19 07:57:50;;;;;;;0.00;0.00;;;;;;;;;;5055018;28;20037;-90
2022/07/19 08:00:16;;;;;;;0.00;0.00;;;;;;;;;;5054871;28;20112;-88
2022/07/19 08:02:43;;;;;;;0.00;0.00;;;;;;;;;;5038239;28;20093;-88
2022/07/19 08:05:10;;;;;;;0.00;0.00;;;;;;;;;;5054887;28;20429;-89
2022/07/19 08:07:36;;;;;;;0.00;0.00;;;;;;;;;;5038235;28;20483;-88
2022/07/19 08:10:04;;;;;;;0.00;0.00;;;;;;;;;;5055066;28;20123;-88
2022/07/19 08:12:30;;;;;;;0.00;0.00;;;;;;;;;;5053776;28;20051;-87
2022/07/19 08:14:56;;;;;;;0.00;0.00;;;;;;;;;;5054855;28;20090;-88
2022/07/19 08:17:22;;;;;;;0.00;0.00;;;;;;;;;;5037811;28;20049;-89
2022/07/19 08:19:48;;;;;;;0.00;0.00;;;;;;;;;;5054654;28;20055;-88
2022/07/19 08:22:18;;;;;;;0.00;0.00;;;;;;;;;;5054839;28;20426;-89
2022/07/19 08:24:44;;;;;;;0.00;0.00;;;;;;;;;;5054707;28;20040;-89
2022/07/19 08:27:10;;;;;;;0.00;0.00;;;;;;;;;;5054777;28;20117;-87
2022/07/19 08:29:36;;;;;;;0.00;0.00;;;;;;;;;;5054878;28;20067;-87
2022/07/19 08:32:03;;;;;;;0.00;0.00;;;;;;;;;;5054412;28;20174;-88
2022/07/19 08:34:29;;;;;;;0.00;0.00;;;;;;;;;;5072592;28;20584;-87
2022/07/19 08:36:55;;;;;;;0.00;0.00;;;;;;;;;;5054204;28;20136;-87
2022/07/19 08:39:21;;;;;;;0.00;0.00;;;;;;;;;;5054940;28;20048;-87
2022/07/19 08:41:47;;;;;;;0.00;0.00;;;;;;;;;;5072326;28;20033;-89
2022/07/19 08:44:13;;;;;;;0.00;0.00;;;;;;;;;;5037969;28;20032;-87
2022/07/19 08:46:41;;;;;;;0.00;0.00;;;;;;;;;;5054496;28;20056;-87
2022/07/19 08:49:07;;;;;;;0.00;0.00;;;;;;;;;;5038080;28;20044;-87
2022/07/19 08:51:33;;;;;;;0.00;0.00;;;;;;;;;;5054108;28;20036;-86
2022/07/19 08:53:59;;;;;;;0.00;0.00;;;;;;;;;;5054820;28;20131;-86
2022/07/19 08:59:10;;;;;;;0.00;0.00;;;;;;;;;;5073267;28;20495;-87
2022/07/19 09:01:36;;;;;;;0.00;0.00;;;;;;;;;;5058049;28;20094;-87
2022/07/19 09:04:03;;;;;;;0.00;0.00;;;;;;;;;;5058269;28;20050;-88
2022/07/19 09:06:39;;;;;;;0.00;0.00;;;;;;;;;;5057858;28;20032;-87
2022/07/19 09:09:05;;;;;;;0.00;0.00;;;;;;;;;;5058260;28;20051;-86
2022/07/19 09:11:35;;;;;;;0.00;0.00;;;;;;;;;;5057904;28;20487;-87
2022/07/19 09:14:09;;;;;;;0.00;0.00;;;;;;;;;;5058341;28;20032;-87
2022/07/19 09:16:53;;;;;;;0.00;0.00;;;;;;;;;;5075686;28;20058;-86
2022/07/19 09:19:20;;;;;;;0.00;0.00;;;;;;;;;;5057963;28;20055;-86
2022/07/19 09:21:52;;;;;;;0.00;0.00;;;;;;;;;;5057563;28;20041;-87
2022/07/19 09:24:19;;;;;;;0.00;0.00;;;;;;;;;;5057816;28;20037;-87
2022/07/19 09:26:57;;;;;;;0.00;0.00;;;;;;;;;;5057924;28;20051;-87
2022/07/19 09:29:24;;;;;;;0.00;0.00;;;;;;;;;;5057761;28;20051;-88
2022/07/19 09:32:00;;;;;;;0.00;0.00;;;;;;;;;;5040865;28;20076;-88
2022/07/19 09:34:33;;;;;;;0.00;0.00;;;;;;;;;;5057475;28;20048;-87
2022/07/19 09:37:13;;;;;;;0.00;0.00;;;;;;;;;;5057343;28;20120;-88
2022/07/19 09:39:41;;;;;;;0.00;0.00;;;;;;;;;;5041122;28;20033;-89
2022/07/19 09:42:08;;;;;;;0.00;0.00;;;;;;;;;;5057274;28;20040;-88
2022/07/19 09:44:34;;;;;;;0.00;0.00;;;;;;;;;;5057693;28;20040;-88
2022/07/19 09:47:00;;;;;;;0.00;0.00;;;;;;;;;;5057138;28;20565;-88
2022/07/19 09:49:26;;;;;;;0.00;0.00;;;;;;;;;;5057339;28;20040;-88
2022/07/19 09:51:53;;;;;;;0.00;0.00;;;;;;;;;;5075220;28;20566;-89
2022/07/19 09:54:20;;;;;;;0.00;0.00;;;;;;;;;;5057536;28;20483;-90
2022/07/19 09:56:48;;;;;;;0.00;0.00;;;;;;;;;;5056945;28;20086;-91
2022/07/19 09:59:14;;;;;;;0.10;0.10;;;;;;;;;;5057355;28;20044;-91
2022/07/19 10:01:41;;;;;;;0.00;0.00;;;;;;;;;;5074698;28;20041;-90
2022/07/19 10:04:07;;;;;;;0.00;0.00;;;;;;;;;;5057678;28;20386;-90
2022/07/19 10:06:33;;;;;;;0.00;0.00;;;;;;;;;;5040256;28;20049;-90
2022/07/19 10:09:00;;;;;;;0.00;0.00;;;;;;;;;;5057416;28;20032;-90
2022/07/19 10:11:27;;;;;;;0.00;0.00;;;;;;;;;;5056464;28;20162;-91
2022/07/19 10:13:54;;;;;;;0.00;0.00;;;;;;;;;;5057043;28;20483;-89
2022/07/19 10:16:25;;;;;;;0.00;0.00;;;;;;;;;;5056516;28;20048;-88
2022/07/19 10:19:08;;;;;;;0.00;0.00;;;;;;;;;;5040201;28;20053;-88
2022/07/19 10:21:35;;;;;;;0.00;0.00;;;;;;;;;;5057001;28;20438;-89
2022/07/19 10:24:02;;;;;;;0.00;0.00;;;;;;;;;;5057209;28;20121;-92
2022/07/19 10:26:35;;;;;;;0.00;0.00;;;;;;;;;;5040950;28;20040;-88
2022/07/19 10:29:12;;;;;;;0.00;0.00;;;;;;;;;;5057098;28;20447;-89
2022/07/19 10:31:38;;;;;;;0.00;0.00;;;;;;;;;;5061845;28;20036;-88
2022/07/19 10:34:09;;;;;;;0.00;0.00;;;;;;;;;;5056647;28;20040;-89
2022/07/19 10:36:37;;;;;;;0.00;0.00;;;;;;;;;;5074242;28;20059;-88
2022/07/19 10:39:19;;;;;;;0.00;0.00;;;;;;;;;;5056611;28;20049;-90
2022/07/19 10:42:04;;;;;;;0.00;0.00;;;;;;;;;;5056518;28;20395;-90
2022/07/19 10:44:30;;;;;;;;;;;;;;;;;;5073920;28;20115;-89
2022/07/19 10:46:56;;;;;;;0.00;0.00;;;;;;;;;;5055882;28;20007;-90
2022/07/19 10:49:41;;;;;;;0.00;0.00;;;;;;;;;;5074130;28;20059;-90
2022/07/19 10:52:25;;;;;;;0.00;0.00;;;;;;;;;;5073941;28;20063;-90
2022/07/19 10:55:10;;;;;;;0.00;0.00;;;;;;;;;;5056270;28;20043;-90
2022/07/19 10:57:37;;;;;;;0.00;0.00;;;;;;;;;;5056100;28;20398;-91
2022/07/19 11:00:15;;;;;;;0.10;0.00;;;;;;;;;;5055884;28;20448;-90
2022/07/19 11:02:42;;;;;;;0.00;0.00;;;;;;;;;;5055841;28;20047;-89
2022/07/19 11:05:08;;;;;;;0.00;0.00;;;;;;;;;;5056256;28;20475;-89
2022/07/19 11:07:34;;;;;;;0.00;0.00;;;;;;;;;;5039386;28;20402;-88
2022/07/19 11:10:02;;;;;;;0.00;0.00;;;;;;;;;;5073949;28;20040;-88
2022/07/19 11:12:33;;;;;;;0.00;0.00;;;;;;;;;;5038959;28;20094;-88
2022/07/19 11:15:00;;;;;;;0.00;0.00;;;;;;;;;;5055748;28;20056;-87
2022/07/19 11:17:26;;;;;;;0.00;0.00;;;;;;;;;;5055208;28;20052;-90
2022/07/19 11:20:08;;;;;;;0.00;0.00;;;;;;;;;;5055566;28;20538;-90
2022/07/19 11:22:39;;;;;;;0.00;0.00;;;;;;;;;;5055085;28;20093;-91
2022/07/19 11:25:06;;;;;;;0.00;0.00;;;;;;;;;;5072392;28;20059;-90
2022/07/19 11:27:33;;;;;;;0.00;0.00;;;;;;;;;;5055331;28;20094;-89
2022/07/19 11:30:00;;;;;;;0.00;0.00;;;;;;;;;;5055728;28;20509;-89
2022/07/19 11:32:26;;;;;;;0.00;0.00;;;;;;;;;;5055215;28;20083;-90
2022/07/19 11:34:56;;;;;;;0.00;0.00;;;;;;;;;;5055422;28;20090;-90
2022/07/19 11:37:23;;;;;;;0.00;0.00;;;;;;;;;;5054990;28;20084;-89
2022/07/19 11:39:50;;;;;;;0.00;0.00;;;;;;;;;;5055255;28;20033;-89
2022/07/19 11:42:16;;;;;;;0.00;0.00;;;;;;;;;;5055026;28;20094;-90
2022/07/19 11:44:42;;;;;;;0.00;0.00;;;;;;;;;;5055127;28;20036;-89
2022/07/19 11:47:08;;;;;;;0.00;0.00;;;;;;;;;;5055527;28;20445;-90
2022/07/19 11:49:40;;;;;;;0.00;0.00;;;;;;;;;;5038677;28;20040;-90
2022/07/19 11:52:06;;;;;;;0.00;0.00;;;;;;;;;;5055084;28;20044;-89
2022/07/19 11:54:31;;;;;;;0.00;0.00;;;;;;;;;;5072788;28;20036;-89
2022/07/19 11:56:57;;;;;;;0.00;0.00;;;;;;;;;;5054931;28;20041;-89
2022/07/19 11:59:23;;;;;;;0.00;0.00;;;;;;;;;;5072970;28;20063;-90
2022/07/19 12:01:57;;;;;;;0.00;0.00;;;;;;;;;;5054861;28;20045;-89
2022/07/19 12:04:23;;;;;;;0.00;0.00;;;;;;;;;;5072808;28;20043;-91
2022/07/19 12:06:51;;;;;;;0.10;0.00;;;;;;;;;;5054920;28;20406;-84
2022/07/19 12:09:25;;;;;;;0.00;0.00;;;;;;;;;;5054825;28;20111;-90
2022/07/19 12:11:52;;;;;;;0.00;0.00;;;;;;;;;;5054826;28;20044;-89
2022/07/19 12:14:19;;;;;;;0.00;0.00;;;;;;;;;;5054892;28;20071;-89
2022/07/19 12:16:45;;;;;;;0.00;0.00;;;;;;;;;;5054639;28;20127;-88
2022/07/19 12:19:12;;;;;;;0.00;0.00;;;;;;;;;;5054994;28;20052;-90
2022/07/19 12:21:41;;;;;;;0.00;0.00;;;;;;;;;;5055019;28;20044;-90
2022/07/19 12:24:23;;;;;;;0.00;0.00;;;;;;;;;;5054785;28;20119;-88
2022/07/19 12:26:55;;;;;;;0.00;0.00;;;;;;;;;;5054975;28;20079;-88
2022/07/19 12:29:33;;;;;;;0.00;0.00;;;;;;;;;;5037823;28;20041;-89
2022/07/19 12:32:04;;;;;;;0.10;0.10;;;;;;;;;;5054689;28;20040;-89
2022/07/19 12:34:41;;;;;;;0.00;0.00;;;;;;;;;;5075782;28;20119;-89
2022/07/19 12:37:22;;;;;;;0.00;0.00;;;;;;;;;;5076968;28;20124;-88
2022/07/19 12:39:58;;;;;;;0.00;0.00;;;;;;;;;;5076440;28;20480;-90
2022/07/19 12:42:24;;;;;;;0.00;0.00;;;;;;;;;;5076973;28;20040;-89
2022/07/19 12:44:50;;;;;;;0.00;0.00;;;;;;;;;;5058730;28;20383;-89
2022/07/19 12:47:16;;;;;;;0.00;0.00;;;;;;;;;;5058751;28;20041;-90
2022/07/19 12:49:47;;;;;;;0.00;0.00;;;;;;;;;;5058563;28;20486;-89
2022/07/19 12:52:13;;;;;;;0.00;0.00;;;;;;;;;;5059431;28;20372;-89
2022/07/19 12:54:40;;;;;;;0.00;0.00;;;;;;;;;;5058569;28;20518;-88
2022/07/19 12:57:06;;;;;;;0.00;0.00;;;;;;;;;;5058397;28;20093;-89
2022/07/19 12:59:41;;;;;;;0.00;0.00;;;;;;;;;;5058232;28;20040;-89
2022/07/19 13:02:09;;;;;;;0.00;0.00;;;;;;;;;;5076260;28;20549;-90
2022/07/19 13:04:35;;;;;;;0.00;0.00;;;;;;;;;;5058106;28;20116;-89
2022/07/19 13:07:01;;;;;;;0.00;0.00;;;;;;;;;;5058143;28;20040;-88
2022/07/19 13:09:27;;;;;;;0.00;0.00;;;;;;;;;;5058079;28;20083;-88
2022/07/19 13:11:53;;;;;;;0.00;0.00;;;;;;;;;;5058122;28;20072;-88
2022/07/19 13:14:19;;;;;;;0.00;0.00;;;;;;;;;;5058349;28;20036;-88
2022/07/19 13:16:45;;;;;;;0.00;0.00;;;;;;;;;;5058118;28;20048;-88
2022/07/19 13:19:11;;;;;;;0.00;0.00;;;;;;;;;;5057773;28;20170;-88
2022/07/19 13:21:37;;;;;;;0.00;0.00;;;;;;;;;;5075823;28;20368;-88
2022/07/19 13:24:04;;;;;;;0.00;0.00;;;;;;;;;;5057829;28;20471;-88
2022/07/19 13:26:30;;;;;;;0.00;0.00;;;;;;;;;;5058041;28;20571;-90
2022/07/19 13:28:56;;;;;;;0.00;0.00;;;;;;;;;;5057631;28;20048;-89
2022/07/19 13:31:22;;;;;;;0.00;0.00;;;;;;;;;;5075655;28;20399;-90
2022/07/19 13:33:48;;;;;;;0.00;0.00;;;;;;;;;;5057678;28;20037;-88
2022/07/19 13:36:14;;;;;;;0.00;0.00;;;;;;;;;;5058088;28;20044;-89
2022/07/19 13:38:41;;;;;;;0.00;0.00;;;;;;;;;;5057429;28;20083;-89
2022/07/19 13:41:08;;;;;;;0.00;0.00;;;;;;;;;;5057643;28;20525;-89
2022/07/19 13:43:34;;;;;;;0.00;0.00;;;;;;;;;;5057498;28;20119;-89
2022/07/19 13:46:00;;;;;;;0.00;0.00;;;;;;;;;;5056779;28;20036;-90
2022/07/19 13:48:26;;;;;;;0.00;0.00;;;;;;;;;;5057444;28;20055;-88
2022/07/19 13:50:52;;;;;;;0.00;0.00;;;;;;;;;;5075180;28;20124;-91
2022/07/19 13:53:18;;;;;;;0.00;0.00;;;;;;;;;;5057588;28;20110;-89
2022/07/19 13:55:44;;;;;;;0.00;0.00;;;;;;;;;;5057161;28;20041;-89
2022/07/19 13:58:10;;;;;;;0.00;0.00;;;;;;;;;;5057293;28;20055;-89
2022/07/19 14:00:36;;;;;;;0.00;0.00;;;;;;;;;;5057155;28;20471;-90
2022/07/19 14:03:02;;;;;;;0.00;0.00;;;;;;;;;;5075328;28;20043;-89
2022/07/19 14:05:28;;;;;;;0.00;0.00;;;;;;;;;;5040279;28;20041;-89
2022/07/19 14:07:54;;;;;;;0.00;0.00;;;;;;;;;;5057100;28;20072;-89
2022/07/19 14:10:21;;;;;;;0.00;0.00;;;;;;;;;;5074957;28;20048;-90
2022/07/19 14:12:47;;;;;;;0.00;0.00;;;;;;;;;;5056922;28;20048;-90
2022/07/19 14:15:13;;;;;;;0.00;0.00;;;;;;;;;;5057337;28;20044;-89
2022/07/19 14:17:39;;;;;;;0.00;0.00;;;;;;;;;;5057081;28;20059;-90
2022/07/19 14:20:06;;;;;;;0.00;0.00;;;;;;;;;;5074474;28;20090;-89
2022/07/19 14:22:32;;;;;;;0.00;0.00;;;;;;;;;;5056827;28;20051;-89
2022/07/19 14:24:59;;;;;;;0.00;0.00;;;;;;;;;;5056597;28;20044;-87
2022/07/19 14:27:25;;;;;;;0.00;0.00;;;;;;;;;;5075021;28;20048;-88
2022/07/19 14:29:51;;;;;;;0.00;0.00;;;;;;;;;;5074520;28;20033;-87
2022/07/19 14:32:17;;;;;;;0.00;0.00;;;;;;;;;;5039886;28;20053;-88
2022/07/19 14:34:43;;;;;;;0.00;0.00;;;;;;;;;;5056678;28;20048;-87
2022/07/19 14:37:09;;;;;;;0.00;0.00;;;;;;;;;;5056592;28;20178;-87
2022/07/19 14:39:36;;;;;;;0.00;0.00;;;;;;;;;;5056527;28;20066;-87
2022/07/19 14:42:03;;;;;;;0.00;0.00;;;;;;;;;;5056602;28;20543;-87
2022/07/19 14:44:29;;;;;;;0.00;0.00;;;;;;;;;;5074348;28;20032;-88
2022/07/19 14:46:55;;;;;;;0.00;0.00;;;;;;;;;;5074369;28;20051;-88